Time;durP1;ratioP1;P1;durP2;ratioP2;P2;SDS_P1;SDS_P2;PMS_P1;PMS_P2;Temp;Humidity;BMP_temperature;BMP_pressure;BME280_temperature;BME280_humidity;BME280_pressure;Samples;Min_cycle;Max_cycle;Signal;HPM_P1;HPM_P2
2022/06/20 00:01:05;;;;;;;11.75;7.15;;;21.70;97.60;;;;;;5075452;28;20055;-73
2022/06/20 00:03:41;;;;;;;11.60;6.68;;;21.60;97.90;;;;;;5076057;28;20462;-73
2022/06/20 00:06:13;;;;;;;13.50;7.20;;;21.50;97.80;;;;;;5075452;28;20028;-73
2022/06/20 00:08:40;;;;;;;13.90;7.75;;;21.50;98.00;;;;;;5075640;28;20059;-73
2022/06/20 00:11:06;;;;;;;13.30;7.80;;;21.40;98.50;;;;;;5075340;28;20023;-73
2022/06/20 00:13:34;;;;;;;11.80;7.18;;;21.40;98.30;;;;;;5075653;28;20171;-73
2022/06/20 00:16:01;;;;;;;10.75;7.28;;;21.40;98.20;;;;;;5075549;28;20481;-73
2022/06/20 00:18:30;;;;;;;10.05;7.45;;;21.30;98.30;;;;;;5075548;28;20032;-73
2022/06/20 00:20:56;;;;;;;10.65;7.60;;;21.30;98.40;;;;;;5075168;28;20024;-73
2022/06/20 00:23:23;;;;;;;10.65;7.38;;;21.30;98.50;;;;;;5073627;28;20115;-73
2022/06/20 00:25:49;;;;;;;11.02;7.65;;;21.30;98.50;;;;;;5074930;28;20040;-73
2022/06/20 00:28:16;;;;;;;15.32;7.65;;;21.30;98.60;;;;;;5075349;28;20473;-72
2022/06/20 00:30:42;;;;;;;11.52;7.40;;;21.20;98.70;;;;;;5074882;28;20107;-73
2022/06/20 00:33:10;;;;;;;13.93;7.53;;;21.20;98.70;;;;;;5075254;28;20040;-73
2022/06/20 00:35:37;;;;;;;11.88;7.45;;;21.20;98.80;;;;;;5074957;28;20032;-73
2022/06/20 00:38:05;;;;;;;12.93;7.22;;;21.10;98.70;;;;;;5074705;28;20546;-73
2022/06/20 00:40:43;;;;;;;11.23;6.75;;;21.10;98.80;;;;;;5074628;28;20435;-73
2022/06/20 00:43:13;;;;;;;11.07;7.13;;;21.10;99.00;;;;;;5073484;28;20079;-73
2022/06/20 00:45:44;;;;;;;9.85;6.57;;;21.00;99.10;;;;;;5074973;28;20035;-73
2022/06/20 00:48:46;;;;;;;10.90;6.85;;;21.00;99.20;;;;;;5074662;28;20029;-73
2022/06/20 00:51:30;;;;;;;11.25;7.13;;;20.90;99.20;;;;;;5074793;28;20111;-73
2022/06/20 00:54:06;;;;;;;11.40;7.40;;;20.90;99.50;;;;;;5074515;28;20028;-73
2022/06/20 00:56:43;;;;;;;10.70;7.32;;;20.80;99.60;;;;;;5074510;28;20028;-73
2022/06/20 00:59:15;;;;;;;10.80;6.38;;;20.70;99.70;;;;;;5074666;28;20025;-73
2022/06/20 01:01:42;;;;;;;12.52;7.40;;;20.70;99.70;;;;;;5073057;28;20035;-73
2022/06/20 01:04:17;;;;;;;13.57;7.53;;;20.70;99.90;;;;;;5054916;28;20029;-73
2022/06/20 01:06:52;;;;;;;13.07;7.15;;;20.70;99.90;;;;;;5054207;28;20103;-73
2022/06/20 01:09:23;;;;;;;14.82;7.85;;;20.60;99.90;;;;;;5054656;28;20104;-73
2022/06/20 01:11:51;;;;;;;15.35;7.75;;;20.60;99.90;;;;;;5053782;28;20033;-73
2022/06/20 01:14:40;;;;;;;12.13;7.72;;;20.50;99.90;;;;;;5054107;28;20028;-73
2022/06/20 01:17:17;;;;;;;16.58;7.78;;;20.50;99.90;;;;;;5054453;28;20461;-73
2022/06/20 01:20:20;;;;;;;13.77;7.97;;;20.50;99.90;;;;;;5054169;28;20029;-73
2022/06/20 01:22:55;;;;;;;12.57;7.90;;;20.50;99.90;;;;;;5052514;28;20025;-73
2022/06/20 01:25:39;;;;;;;14.55;7.90;;;20.40;99.90;;;;;;5054051;28;20032;-73
2022/06/20 01:28:09;;;;;;;11.70;7.80;;;20.30;99.90;;;;;;5054366;28;20441;-73
2022/06/20 01:30:40;;;;;;;12.37;7.50;;;20.30;99.90;;;;;;5067100;28;20522;-73
2022/06/20 01:33:06;;;;;;;9.90;7.15;;;20.30;99.90;;;;;;5073733;28;20456;-73
2022/06/20 01:38:19;;;;;;;9.57;7.53;;;20.20;99.90;;;;;;5073177;28;20086;-73
2022/06/20 01:43:32;;;;;;;13.98;7.47;;;20.20;99.90;;;;;;5074200;28;20392;-73
2022/06/20 01:45:58;;;;;;;12.27;7.15;;;20.10;99.90;;;;;;5073582;28;20460;-73
2022/06/20 01:48:29;;;;;;;13.88;7.45;;;20.10;99.90;;;;;;5073851;28;20024;-73
2022/06/20 01:50:56;;;;;;;;;;;20.10;99.90;;;;;;5073932;28;20023;-73
2022/06/20 01:53:28;;;;;;;13.25;7.93;;;20.10;99.90;;;;;;5073317;28;19915;-73
2022/06/20 01:55:55;;;;;;;12.70;8.25;;;20.00;99.90;;;;;;5073815;28;20465;-73
2022/06/20 01:58:30;;;;;;;16.10;7.78;;;20.00;99.90;;;;;;5072230;28;20524;-73
2022/06/20 02:00:58;;;;;;;14.18;8.20;;;19.90;99.90;;;;;;5073372;28;20021;-73
2022/06/20 02:03:23;;;;;;;10.55;7.82;;;19.80;99.90;;;;;;5073760;28;20437;-73
2022/06/20 02:05:54;;;;;;;11.48;7.82;;;19.70;99.90;;;;;;5073937;28;20060;-73
2022/06/20 02:08:21;;;;;;;14.07;8.07;;;19.70;99.90;;;;;;5073301;28;20024;-73
2022/06/20 02:10:51;;;;;;;12.85;7.45;;;19.70;99.90;;;;;;5073302;28;20503;-73
2022/06/20 02:13:18;;;;;;;13.15;7.60;;;19.70;99.90;;;;;;5073307;28;20013;-73
2022/06/20 02:15:47;;;;;;;11.27;7.85;;;19.60;99.90;;;;;;5073262;28;20032;-73
2022/06/20 02:18:15;;;;;;;16.80;7.80;;;19.60;99.90;;;;;;5073273;28;20021;-73
2022/06/20 02:20:46;;;;;;;15.70;7.88;;;19.50;99.90;;;;;;5073724;28;20020;-73
2022/06/20 02:23:40;;;;;;;16.98;8.15;;;19.40;99.90;;;;;;5076848;28;20029;-73
2022/06/20 02:26:08;;;;;;;15.32;8.85;;;19.40;99.90;;;;;;5075718;28;20037;-73
2022/06/20 02:28:48;;;;;;;12.05;7.65;;;19.40;99.90;;;;;;5077368;28;20024;-73
2022/06/20 02:31:15;;;;;;;13.88;7.85;;;19.30;99.90;;;;;;5077221;28;20013;-73
2022/06/20 02:33:41;;;;;;;14.15;8.32;;;19.30;99.90;;;;;;5077200;28;20012;-73
2022/06/20 02:36:08;;;;;;;14.57;8.60;;;19.30;99.90;;;;;;5077204;28;20025;-73
2022/06/20 02:38:36;;;;;;;12.25;7.43;;;19.30;99.90;;;;;;5077040;28;20036;-73
2022/06/20 02:41:02;;;;;;;13.90;7.85;;;19.20;99.90;;;;;;5077019;28;20082;-73
2022/06/20 02:43:42;;;;;;;13.45;8.13;;;19.20;99.90;;;;;;5077660;28;20020;-73
2022/06/20 02:46:11;;;;;;;12.32;7.50;;;19.20;99.90;;;;;;5076985;28;20461;-73
2022/06/20 02:48:41;;;;;;;12.10;7.38;;;19.10;99.90;;;;;;5076228;28;20029;-73
2022/06/20 02:51:10;;;;;;;13.18;7.10;;;19.10;99.90;;;;;;5075799;28;20087;-73
2022/06/20 02:53:41;;;;;;;12.23;7.97;;;19.10;99.90;;;;;;5076574;28;20437;-73
2022/06/20 02:56:07;;;;;;;;;;;19.00;99.90;;;;;;5077222;28;20056;-73
2022/06/20 02:58:38;;;;;;;12.45;8.50;;;18.90;99.90;;;;;;5076727;28;19926;-73
2022/06/20 03:01:15;;;;;;;12.40;8.15;;;18.80;99.90;;;;;;5076866;28;20024;-73
2022/06/20 03:03:46;;;;;;;11.90;7.32;;;18.70;99.90;;;;;;5076654;28;20108;-73
2022/06/20 03:06:24;;;;;;;9.40;7.43;;;18.80;99.90;;;;;;5076809;28;20025;-73
2022/06/20 03:08:52;;;;;;;11.82;7.85;;;18.70;99.90;;;;;;5076418;28;20385;-73
2022/06/20 03:11:19;;;;;;;10.18;7.38;;;18.80;99.90;;;;;;5076388;28;20495;-73
2022/06/20 03:13:46;;;;;;;14.85;7.72;;;18.80;99.90;;;;;;5076513;28;20040;-73
2022/06/20 03:16:13;;;;;;;12.55;8.18;;;18.80;99.90;;;;;;5076453;28;20028;-73
2022/06/20 03:18:49;;;;;;;18.20;8.85;;;18.70;99.90;;;;;;5076364;28;20361;-73
2022/06/20 03:21:20;;;;;;;16.90;8.85;;;18.70;99.90;;;;;;5076552;28;20024;-73
2022/06/20 03:23:45;;;;;;;;;;;18.70;99.90;;;;;;5076534;28;20385;-73
2022/06/20 03:26:22;;;;;;;12.25;7.85;;;18.60;99.90;;;;;;5076080;28;19919;-73
2022/06/20 03:28:48;;;;;;;14.20;8.65;;;18.60;99.90;;;;;;5076945;28;20108;-73
2022/06/20 03:31:14;;;;;;;17.60;8.63;;;18.60;99.90;;;;;;5076010;28;20100;-72
2022/06/20 03:33:41;;;;;;;17.63;9.27;;;18.50;99.90;;;;;;5074929;28;20020;-73
2022/06/20 03:36:15;;;;;;;13.90;8.65;;;18.60;99.90;;;;;;5076357;28;20381;-73
2022/06/20 03:38:44;;;;;;;11.18;7.85;;;18.60;99.90;;;;;;5074537;28;20115;-72
2022/06/20 03:41:13;;;;;;;13.90;8.60;;;18.60;99.90;;;;;;5075869;28;20060;-73
2022/06/20 03:43:45;;;;;;;15.23;8.82;;;18.50;99.90;;;;;;5074657;28;20025;-72
2022/06/20 03:46:36;;;;;;;;;;;18.50;99.90;;;;;;5076026;28;20129;-72
2022/06/20 03:49:16;;;;;;;12.57;8.13;;;18.50;99.90;;;;;;5051950;28;19916;-73
2022/06/20 03:51:45;;;;;;;13.43;8.07;;;18.50;99.90;;;;;;5074398;28;20162;-72
2022/06/20 03:54:26;;;;;;;12.55;8.50;;;18.50;99.90;;;;;;5074186;28;20025;-72
2022/06/20 03:57:06;;;;;;;15.07;9.43;;;18.50;99.90;;;;;;5075764;28;20031;-73
2022/06/20 03:59:43;;;;;;;13.07;7.75;;;18.50;99.90;;;;;;5075443;28;20017;-73
2022/06/20 04:02:24;;;;;;;13.38;8.40;;;18.40;99.90;;;;;;5074679;28;20023;-72
2022/06/20 04:05:18;;;;;;;14.13;8.20;;;18.40;99.90;;;;;;5073692;28;20028;-72
2022/06/20 04:07:55;;;;;;;14.30;9.93;;;18.40;99.90;;;;;;5075086;28;20480;-72
2022/06/20 04:13:35;;;;;;;19.17;9.15;;;18.40;99.90;;;;;;5075326;28;20074;-73
2022/06/20 04:16:04;;;;;;;11.77;8.45;;;18.40;99.90;;;;;;5070051;28;20051;-73
2022/06/20 04:18:36;;;;;;;12.77;8.90;;;18.40;99.90;;;;;;5075215;28;20038;-73
2022/06/20 04:21:10;;;;;;;11.85;8.23;;;18.50;99.90;;;;;;5074773;28;20507;-73
2022/06/20 04:23:57;;;;;;;15.15;8.77;;;18.50;99.90;;;;;;5074810;28;20538;-72
2022/06/20 04:26:41;;;;;;;10.95;7.88;;;18.40;99.90;;;;;;5074864;28;20123;-71
2022/06/20 04:29:14;;;;;;;12.00;8.70;;;18.40;99.90;;;;;;5067968;28;20036;-72
2022/06/20 04:31:45;;;;;;;12.52;8.77;;;18.40;99.90;;;;;;5074650;28;20029;-72
2022/06/20 04:34:39;;;;;;;14.05;8.35;;;18.40;99.90;;;;;;5074706;28;20017;-72
2022/06/20 04:37:23;;;;;;;15.65;8.95;;;18.50;99.90;;;;;;5074678;28;20025;-72
2022/06/20 04:40:04;;;;;;;14.27;9.32;;;18.50;99.90;;;;;;5074642;28;20024;-72
2022/06/20 04:42:33;;;;;;;;;;;18.50;99.90;;;;;;5073680;28;20052;-73
2022/06/20 04:45:04;;;;;;;14.48;9.48;;;18.50;99.90;;;;;;5074032;28;19912;-72
2022/06/20 04:47:43;;;;;;;17.90;8.93;;;18.60;99.90;;;;;;5074365;28;20025;-72
2022/06/20 04:50:25;;;;;;;17.40;9.43;;;18.60;99.90;;;;;;5073902;28;20107;-73
2022/06/20 04:52:53;;;;;;;14.90;9.05;;;18.60;99.90;;;;;;5074068;28;20028;-72
2022/06/20 04:55:23;;;;;;;15.18;9.43;;;18.70;99.90;;;;;;5074819;28;20039;-72
2022/06/20 04:57:51;;;;;;;16.85;9.77;;;18.60;99.90;;;;;;5074726;28;20025;-72
2022/06/20 05:00:25;;;;;;;14.90;9.63;;;18.70;99.90;;;;;;5073080;28;20025;-72
2022/06/20 05:02:53;;;;;;;17.33;10.77;;;18.70;99.90;;;;;;5074686;28;20028;-72
2022/06/20 05:05:22;;;;;;;15.32;9.73;;;18.80;99.90;;;;;;5074249;28;20473;-73
2022/06/20 05:07:49;;;;;;;15.43;9.77;;;18.80;99.90;;;;;;5074967;28;20373;-72
2022/06/20 05:10:21;;;;;;;13.98;9.85;;;18.90;99.90;;;;;;5074202;28;20017;-72
2022/06/20 05:12:55;;;;;;;15.52;10.25;;;18.90;99.90;;;;;;5074272;28;20025;-73
2022/06/20 05:15:45;;;;;;;15.98;10.48;;;19.00;99.90;;;;;;5074481;28;20052;-74
2022/06/20 05:18:31;;;;;;;16.77;10.15;;;19.10;99.90;;;;;;5074116;28;20025;-74
2022/06/20 05:21:08;;;;;;;16.20;10.32;;;19.20;99.90;;;;;;5073670;28;20040;-74
2022/06/20 05:23:39;;;;;;;16.50;9.60;;;19.20;99.90;;;;;;5073920;28;20052;-74
2022/06/20 05:26:06;;;;;;;;;;;19.30;99.90;;;;;;5072863;28;20362;-74
2022/06/20 05:28:33;;;;;;;18.13;10.20;;;19.30;99.90;;;;;;5073920;28;19912;-74
2022/06/20 05:31:01;;;;;;;20.85;10.32;;;19.30;99.90;;;;;;5073741;28;20044;-73
2022/06/20 05:33:45;;;;;;;14.68;9.15;;;19.40;99.90;;;;;;5073821;28;20030;-74
2022/06/20 05:36:29;;;;;;;18.98;11.35;;;19.40;99.90;;;;;;5074140;28;20024;-74
2022/06/20 05:39:05;;;;;;;18.45;11.95;;;19.50;99.90;;;;;;5073732;28;20023;-74
2022/06/20 05:41:31;;;;;;;14.10;11.30;;;19.50;99.90;;;;;;5073965;28;20027;-74
2022/06/20 05:43:57;;;;;;;21.85;10.48;;;19.60;99.90;;;;;;5073849;28;20028;-74
2022/06/20 05:46:50;;;;;;;13.85;9.63;;;19.70;99.90;;;;;;5073946;28;20468;-74
2022/06/20 05:49:26;;;;;;;14.63;9.32;;;19.80;99.90;;;;;;5073674;28;20495;-74
2022/06/20 05:51:54;;;;;;;21.58;12.50;;;19.80;99.90;;;;;;5073682;28;20013;-74
2022/06/20 05:54:43;;;;;;;21.88;11.65;;;19.90;99.90;;;;;;5073339;28;20032;-73
2022/06/20 05:57:15;;;;;;;24.52;11.98;;;19.90;99.90;;;;;;5073274;28;20029;-74
2022/06/20 05:59:53;;;;;;;19.25;11.27;;;19.90;99.90;;;;;;5073655;28;20020;-74
2022/06/20 06:02:18;;;;;;;14.90;9.98;;;20.00;99.90;;;;;;5073497;28;20027;-74
2022/06/20 06:05:13;;;;;;;25.40;11.60;;;20.00;99.90;;;;;;5073348;28;20029;-74
2022/06/20 06:07:53;;;;;;;22.13;12.05;;;20.00;99.90;;;;;;5073199;28;20033;-73
2022/06/20 06:10:39;;;;;;;19.40;11.03;;;20.00;99.90;;;;;;5073650;28;20023;-74
2022/06/20 06:13:25;;;;;;;18.85;12.32;;;20.00;99.90;;;;;;5073372;28;20251;-74
2022/06/20 06:19:06;;;;;;;17.90;11.80;;;20.00;99.90;;;;;;5073556;28;20032;-74
2022/06/20 06:21:33;;;;;;;19.02;11.77;;;20.00;99.90;;;;;;5073539;28;20425;-73
2022/06/20 06:23:59;;;;;;;19.85;11.43;;;20.00;99.90;;;;;;5073210;28;20461;-73
2022/06/20 06:26:26;;;;;;;18.88;10.98;;;20.00;99.90;;;;;;5073220;28;20399;-73
2022/06/20 06:28:53;;;;;;;23.02;13.02;;;20.00;99.90;;;;;;5073218;28;20082;-74
2022/06/20 06:31:31;;;;;;;22.85;11.57;;;20.00;99.90;;;;;;5073361;28;20107;-74
2022/06/20 06:34:01;;;;;;;24.08;12.75;;;20.00;99.90;;;;;;5073481;28;20070;-74
2022/06/20 06:36:36;;;;;;;15.77;11.55;;;20.00;99.90;;;;;;5073665;28;20473;-74
2022/06/20 06:39:13;;;;;;;18.83;11.38;;;20.10;99.90;;;;;;5072964;28;20472;-73
2022/06/20 06:41:46;;;;;;;27.02;12.68;;;20.20;99.90;;;;;;5071770;28;20043;-74
2022/06/20 06:44:34;;;;;;;24.52;12.93;;;20.20;99.90;;;;;;5073339;28;20533;-74
2022/06/20 06:47:00;;;;;;;19.10;11.45;;;20.40;99.90;;;;;;5073078;28;20032;-74
2022/06/20 06:49:45;;;;;;;20.35;12.20;;;20.50;99.90;;;;;;5071739;28;20064;-74
2022/06/20 06:52:42;;;;;;;23.73;13.07;;;20.50;99.90;;;;;;5073139;28;20024;-74
2022/06/20 06:55:19;;;;;;;24.73;12.57;;;20.50;99.90;;;;;;5064618;28;20082;-74
2022/06/20 06:57:50;;;;;;;18.67;12.63;;;20.50;99.90;;;;;;5073177;28;20016;-74
2022/06/20 07:00:18;;;;;;;17.00;11.50;;;20.50;99.90;;;;;;5071535;28;20115;-74
2022/06/20 07:02:59;;;;;;;22.48;11.32;;;20.50;99.90;;;;;;5072762;28;20021;-74
2022/06/20 07:05:37;;;;;;;19.27;11.93;;;20.50;99.90;;;;;;5073169;28;20021;-74
2022/06/20 07:08:18;;;;;;;16.83;12.38;;;20.50;99.90;;;;;;5074232;28;20497;-74
2022/06/20 07:11:06;;;;;;;20.70;12.15;;;20.60;99.90;;;;;;5076828;28;20093;-74
2022/06/20 07:13:45;;;;;;;24.08;12.65;;;20.70;99.90;;;;;;5076759;28;20025;-74
2022/06/20 07:16:51;;;;;;;23.23;13.40;;;20.80;99.90;;;;;;5077060;28;20035;-74
2022/06/20 07:19:19;;;;;;;17.17;10.63;;;21.10;99.90;;;;;;5033511;28;20032;-74
2022/06/20 07:21:45;;;;;;;22.73;11.45;;;21.40;99.90;;;;;;5076302;28;20029;-74
2022/06/20 07:24:23;;;;;;;23.98;11.25;;;21.50;99.90;;;;;;5076165;28;20024;-74
2022/06/20 07:27:15;;;;;;;19.85;11.52;;;21.60;99.90;;;;;;5076587;28;20043;-74
2022/06/20 07:29:46;;;;;;;20.25;11.95;;;21.80;99.90;;;;;;5074885;28;20020;-75
2022/06/20 07:32:16;;;;;;;17.83;11.77;;;22.10;99.90;;;;;;5076393;28;20073;-75
2022/06/20 07:34:48;;;;;;;17.80;10.77;;;22.40;99.90;;;;;;5076674;28;20078;-74
2022/06/20 07:37:20;;;;;;;20.95;10.82;;;22.60;99.90;;;;;;5076375;28;20115;-74
2022/06/20 07:39:55;;;;;;;21.63;11.90;;;22.60;99.90;;;;;;5075854;28;20499;-74
2022/06/20 07:42:46;;;;;;;16.65;10.60;;;22.60;99.90;;;;;;5075970;28;20090;-74
2022/06/20 07:45:17;;;;;;;18.83;10.98;;;22.60;99.90;;;;;;5076118;28;20468;-75
2022/06/20 07:47:59;;;;;;;19.40;11.10;;;22.70;99.90;;;;;;5076168;28;20029;-74
2022/06/20 07:50:33;;;;;;;19.38;10.55;;;22.70;99.90;;;;;;5076142;28;20016;-74
2022/06/20 07:53:16;;;;;;;19.33;10.20;;;22.80;99.90;;;;;;5075832;28;20579;-74
2022/06/20 07:55:49;;;;;;;15.77;10.07;;;22.90;99.90;;;;;;5076069;28;20028;-74
2022/06/20 07:58:24;;;;;;;13.15;9.32;;;23.10;99.90;;;;;;5076084;28;20421;-74
2022/06/20 08:00:52;;;;;;;19.27;10.25;;;23.20;99.90;;;;;;5075649;28;20024;-74
2022/06/20 08:03:39;;;;;;;15.85;9.55;;;23.30;99.90;;;;;;5075669;28;20032;-75
2022/06/20 08:06:27;;;;;;;13.30;9.65;;;23.30;99.90;;;;;;5075816;28;20024;-74
2022/06/20 08:08:56;;;;;;;20.73;9.82;;;23.40;99.90;;;;;;5075258;28;20017;-74
2022/06/20 08:11:46;;;;;;;24.75;10.25;;;23.40;99.90;;;;;;5075289;28;20021;-75
2022/06/20 08:14:39;;;;;;;11.65;8.82;;;23.50;99.90;;;;;;5075427;28;20020;-75
2022/06/20 08:17:08;;;;;;;19.58;9.10;;;23.50;99.90;;;;;;5075342;28;20059;-75
2022/06/20 08:19:36;;;;;;;17.63;9.50;;;23.60;99.90;;;;;;5073442;28;20112;-75
2022/06/20 08:22:12;;;;;;;12.18;9.32;;;23.70;99.90;;;;;;5075203;28;20381;-75
2022/06/20 08:24:55;;;;;;;13.90;8.85;;;23.80;99.90;;;;;;5073495;28;20036;-75
2022/06/20 08:28:07;;;;;;;15.82;8.30;;;23.90;99.90;;;;;;5075740;28;20036;-75
2022/06/20 08:30:43;;;;;;;13.35;8.23;;;24.10;99.90;;;;;;5074940;28;20043;-75
2022/06/20 08:33:20;;;;;;;16.33;8.35;;;24.40;99.90;;;;;;5075071;28;20039;-75
2022/06/20 08:36:15;;;;;;;19.40;9.18;;;24.70;99.90;;;;;;5075312;28;20027;-75
2022/06/20 08:39:04;;;;;;;11.48;8.65;;;24.90;99.90;;;;;;5075030;28;20032;-74
2022/06/20 08:42:05;;;;;;;12.93;9.27;;;25.20;99.90;;;;;;5075123;28;20028;-74
2022/06/20 08:44:48;;;;;;;13.98;8.30;;;25.50;99.90;;;;;;5073733;28;20025;-75
2022/06/20 08:47:30;;;;;;;12.13;7.82;;;25.80;99.50;;;;;;5075092;28;20461;-75
2022/06/20 08:50:08;;;;;;;16.27;8.05;;;25.90;98.20;;;;;;5073697;28;20389;-74
2022/06/20 08:52:51;;;;;;;16.02;7.13;;;26.10;96.30;;;;;;5074609;28;20055;-75
2022/06/20 08:55:56;;;;;;;16.58;6.85;;;26.30;95.50;;;;;;5073400;28;20028;-75
2022/06/20 08:58:40;;;;;;;12.98;6.97;;;26.50;93.90;;;;;;5073274;28;20033;-75
2022/06/20 09:01:11;;;;;;;15.95;6.78;;;26.70;93.60;;;;;;5073050;28;20056;-74
2022/06/20 09:03:51;;;;;;;16.08;7.13;;;26.90;92.80;;;;;;5074468;28;20024;-75
2022/06/20 09:06:58;;;;;;;12.88;7.20;;;27.00;91.60;;;;;;5074295;28;20522;-75
2022/06/20 09:10:05;;;;;;;19.98;7.70;;;27.20;91.40;;;;;;5074017;28;20027;-74
2022/06/20 09:13:04;;;;;;;15.10;6.80;;;27.10;91.60;;;;;;5073808;28;20037;-75
2022/06/20 09:15:42;;;;;;;12.65;5.90;;;27.20;90.20;;;;;;5074173;28;20020;-75
2022/06/20 09:18:27;;;;;;;11.98;5.55;;;27.40;82.60;;;;;;5074385;28;20071;-75
2022/06/20 09:21:13;;;;;;;10.38;5.68;;;27.30;82.20;;;;;;5074336;28;20032;-75
2022/06/20 09:24:21;;;;;;;15.40;6.70;;;27.20;79.90;;;;;;5072563;28;20028;-75
2022/06/20 09:26:52;;;;;;;16.80;6.45;;;27.10;80.60;;;;;;5058412;28;20089;-75
2022/06/20 09:29:59;;;;;;;19.45;5.97;;;27.10;80.00;;;;;;5073383;28;20101;-75
2022/06/20 09:32:32;;;;;;;15.82;6.68;;;27.00;79.30;;;;;;5073118;28;20404;-76
2022/06/20 09:35:32;;;;;;;16.48;6.53;;;27.10;79.70;;;;;;5073840;28;20023;-75
2022/06/20 09:38:13;;;;;;;16.13;6.82;;;27.00;79.30;;;;;;5073858;28;20074;-74
2022/06/20 09:40:54;;;;;;;14.07;6.53;;;27.00;77.60;;;;;;5073893;28;20048;-75
2022/06/20 09:43:42;;;;;;;19.13;6.43;;;27.00;78.10;;;;;;5072869;28;20027;-75
2022/06/20 09:46:30;;;;;;;13.30;5.68;;;27.00;77.30;;;;;;5072334;28;20028;-75
2022/06/20 09:49:07;;;;;;;12.63;6.00;;;27.00;76.70;;;;;;5073616;28;20061;-75
2022/06/20 09:51:45;;;;;;;18.20;6.93;;;26.90;75.60;;;;;;5072838;28;20055;-75
2022/06/20 09:54:22;;;;;;;11.50;6.13;;;26.90;75.60;;;;;;5073490;28;20480;-74
2022/06/20 09:57:09;;;;;;;18.27;6.57;;;26.90;74.80;;;;;;5073558;28;20473;-75
2022/06/20 10:00:00;;;;;;;15.32;6.40;;;26.90;74.40;;;;;;5073544;28;20032;-75
2022/06/20 10:02:29;;;;;;;9.48;6.10;;;26.90;72.60;;;;;;5072273;28;20025;-75
2022/06/20 10:05:14;;;;;;;15.05;7.05;;;26.90;73.70;;;;;;5073755;28;20519;-75
2022/06/20 10:08:39;;;;;;;12.32;5.60;;;26.90;73.90;;;;;;5073468;28;20040;-75
2022/06/20 10:11:08;;;;;;;13.75;6.38;;;26.90;75.20;;;;;;5031518;28;20525;-74
2022/06/20 10:13:57;;;;;;;13.60;6.47;;;27.00;76.00;;;;;;5031531;28;20544;-74
2022/06/20 10:16:40;;;;;;;12.68;5.90;;;27.10;77.30;;;;;;5050309;28;20563;-75
2022/06/20 10:19:34;;;;;;;13.60;5.93;;;27.10;77.10;;;;;;5073310;28;20028;-75
2022/06/20 10:22:17;;;;;;;10.75;5.63;;;27.20;76.30;;;;;;5073532;28;20028;-75
2022/06/20 10:25:02;;;;;;;15.02;6.90;;;27.30;74.70;;;;;;5072922;28;20039;-75
2022/06/20 10:27:55;;;;;;;12.45;6.50;;;27.30;74.70;;;;;;5073225;28;20025;-75
2022/06/20 10:30:44;;;;;;;13.73;6.15;;;27.30;71.60;;;;;;5071778;28;20477;-75
2022/06/20 10:33:31;;;;;;;14.50;5.85;;;27.30;73.10;;;;;;5071947;28;20183;-75
2022/06/20 10:35:59;;;;;;;;;;;27.40;73.60;;;;;;5072551;28;19904;-75
2022/06/20 10:38:41;;;;;;;17.13;6.25;;;27.50;71.50;;;;;;5071944;28;20361;-74
2022/06/20 10:41:08;;;;;;;12.15;6.18;;;27.60;72.20;;;;;;5073647;28;20082;-75
2022/06/20 10:43:47;;;;;;;13.43;6.22;;;27.90;73.00;;;;;;5075606;28;20017;-75
2022/06/20 10:46:39;;;;;;;22.10;6.93;;;28.20;73.70;;;;;;5077391;28;20113;-75
2022/06/20 10:49:05;;;;;;;;;;;28.50;71.70;;;;;;5077450;28;20099;-75
2022/06/20 10:51:37;;;;;;;;;;;28.60;69.90;;;;;;5077290;28;19908;-75
2022/06/20 10:54:24;;;;;;;15.98;5.93;;;28.80;68.00;;;;;;5076785;28;19904;-75
2022/06/20 10:57:41;;;;;;;12.35;6.35;;;29.00;66.10;;;;;;5076938;28;20103;-75
2022/06/20 11:00:10;;;;;;;14.60;6.15;;;29.10;65.50;;;;;;5075465;28;20389;-75
2022/06/20 11:03:07;;;;;;;12.32;6.30;;;29.20;68.30;;;;;;5076777;28;20381;-75
2022/06/20 11:06:03;;;;;;;14.00;5.72;;;29.40;65.80;;;;;;5076686;28;20469;-74
2022/06/20 11:08:50;;;;;;;13.13;6.32;;;29.40;63.20;;;;;;5076451;28;20039;-75
2022/06/20 11:11:56;;;;;;;11.02;5.93;;;29.50;65.60;;;;;;5076768;28;20433;-75
2022/06/20 11:14:46;;;;;;;14.27;5.95;;;29.60;65.10;;;;;;5070166;28;20438;-75
2022/06/20 11:17:43;;;;;;;12.02;6.00;;;29.70;65.30;;;;;;5060711;28;20028;-75
2022/06/20 11:20:31;;;;;;;10.65;5.68;;;29.90;60.00;;;;;;5060013;28;20029;-75
2022/06/20 11:23:20;;;;;;;18.63;7.05;;;29.80;61.90;;;;;;5057494;28;20021;-77
2022/06/20 11:25:52;;;;;;;12.50;6.13;;;29.90;61.10;;;;;;5055691;28;20086;-73
2022/06/20 11:28:36;;;;;;;15.77;6.10;;;29.90;61.40;;;;;;5070326;28;20048;-73
2022/06/20 11:31:13;;;;;;;11.05;6.47;;;29.70;62.20;;;;;;5057931;28;20017;-74
2022/06/20 11:34:23;;;;;;;14.73;6.43;;;29.80;61.80;;;;;;5056022;28;20075;-73
2022/06/20 11:37:11;;;;;;;11.35;5.20;;;29.90;64.30;;;;;;5056683;28;20042;-72
2022/06/20 11:40:13;;;;;;;10.98;5.50;;;30.10;63.10;;;;;;5055901;28;20029;-73
2022/06/20 11:43:20;;;;;;;11.40;5.70;;;30.30;61.80;;;;;;5056520;28;20443;-74
2022/06/20 11:46:07;;;;;;;16.30;5.85;;;30.50;60.40;;;;;;5056211;28;20025;-73
2022/06/20 11:48:57;;;;;;;12.77;6.13;;;30.60;59.40;;;;;;5056255;28;20025;-73
2022/06/20 11:51:32;;;;;;;11.13;5.85;;;30.50;60.50;;;;;;5055805;28;20044;-72
2022/06/20 11:54:19;;;;;;;12.27;5.63;;;30.30;59.80;;;;;;5054754;28;20029;-73
2022/06/20 11:57:00;;;;;;;13.32;6.22;;;30.30;60.90;;;;;;5056112;28;20021;-72
2022/06/20 11:59:41;;;;;;;14.07;6.38;;;30.20;61.50;;;;;;5058501;28;20047;-72
2022/06/20 12:02:40;;;;;;;12.15;6.78;;;30.20;59.90;;;;;;5075917;28;20086;-72
2022/06/20 12:05:42;;;;;;;13.95;5.78;;;30.30;62.00;;;;;;5074337;28;20029;-71
2022/06/20 12:08:26;;;;;;;10.05;5.50;;;30.40;60.90;;;;;;5071806;28;20146;-72
2022/06/20 12:10:57;;;;;;;11.68;5.32;;;30.50;60.40;;;;;;5075791;28;20017;-73
2022/06/20 12:13:53;;;;;;;13.52;6.05;;;30.60;60.00;;;;;;5075794;28;20430;-72
2022/06/20 12:16:48;;;;;;;13.43;5.50;;;30.60;60.60;;;;;;5075721;28;20032;-72
2022/06/20 12:25:15;;;;;;;22.48;8.98;;;30.20;59.10;;;;;;5074579;28;20043;-72
2022/06/20 12:27:42;;;;;;;30.92;10.85;;;29.90;58.70;;;;;;5073911;28;20020;-71
2022/06/20 12:30:13;;;;;;;19.45;8.18;;;29.70;59.00;;;;;;5075148;28;20021;-72
2022/06/20 12:32:42;;;;;;;22.10;7.18;;;29.40;60.00;;;;;;5075301;28;20025;-71
2022/06/20 12:35:35;;;;;;;15.75;5.38;;;29.30;59.80;;;;;;5075009;28;20033;-71
2022/06/20 12:38:16;;;;;;;13.50;5.82;;;29.20;61.70;;;;;;5075520;28;20380;-71
2022/06/20 12:40:53;;;;;;;11.98;5.53;;;29.00;59.60;;;;;;5074795;28;20024;-72
2022/06/20 12:43:32;;;;;;;10.15;5.65;;;28.90;62.40;;;;;;5075110;28;20028;-71
2022/06/20 12:46:16;;;;;;;12.15;5.60;;;28.90;60.70;;;;;;5075294;28;20021;-71
2022/06/20 12:49:12;;;;;;;11.70;6.18;;;29.00;61.60;;;;;;5075244;28;20384;-71
2022/06/20 12:51:46;;;;;;;12.85;6.03;;;29.00;60.20;;;;;;5074654;28;20012;-70
2022/06/20 12:54:34;;;;;;;11.20;5.55;;;29.10;60.60;;;;;;5074524;28;20017;-71
2022/06/20 12:57:30;;;;;;;10.98;5.40;;;29.40;62.30;;;;;;5075140;28;20544;-68
2022/06/20 13:00:18;;;;;;;10.68;6.07;;;29.70;61.50;;;;;;5074370;28;20024;-69
2022/06/20 13:02:59;;;;;;;10.35;5.30;;;30.00;61.80;;;;;;5073308;28;20021;-69
2022/06/20 13:05:33;;;;;;;9.90;5.50;;;30.20;59.50;;;;;;5074364;28;20032;-69
2022/06/20 13:08:23;;;;;;;10.15;5.85;;;30.20;57.80;;;;;;5074587;28;20034;-69
2022/06/20 13:11:07;;;;;;;13.02;5.63;;;30.10;61.60;;;;;;5074121;28;20047;-69
2022/06/20 13:13:58;;;;;;;9.82;5.43;;;30.00;61.80;;;;;;5074831;28;20406;-70
2022/06/20 13:16:27;;;;;;;;;;;29.90;61.20;;;;;;5074614;28;20103;-69
2022/06/20 13:19:35;;;;;;;16.73;5.97;;;29.70;59.70;;;;;;5074199;28;19905;-71
2022/06/20 13:22:35;;;;;;;15.10;5.88;;;29.50;60.50;;;;;;5042738;28;20071;-70
2022/06/20 13:25:14;;;;;;;10.23;5.47;;;29.50;60.80;;;;;;5069634;28;20161;-70
2022/06/20 13:28:04;;;;;;;10.20;5.25;;;29.50;59.80;;;;;;5074275;28;20032;-69
2022/06/20 13:30:48;;;;;;;11.90;5.85;;;29.60;61.20;;;;;;5073901;28;20433;-68
2022/06/20 13:33:37;;;;;;;14.32;6.00;;;29.60;60.40;;;;;;5073936;28;20021;-69
2022/06/20 13:36:40;;;;;;;9.27;5.90;;;29.70;62.40;;;;;;5074122;28;20028;-70
2022/06/20 13:39:47;;;;;;;11.73;5.38;;;30.00;61.80;;;;;;5073862;28;20061;-69
2022/06/20 13:42:37;;;;;;;10.88;5.43;;;30.10;58.50;;;;;;5073935;28;20551;-70
2022/06/20 13:45:09;;;;;;;12.57;6.20;;;30.20;60.00;;;;;;5073957;28;20028;-70
2022/06/20 13:47:50;;;;;;;14.53;5.93;;;30.20;60.40;;;;;;5074035;28;20039;-70
2022/06/20 13:51:20;;;;;;;11.17;6.37;;;30.40;60.40;;;;;;5073848;28;20017;-69
2022/06/20 13:54:00;;;;;;;9.95;5.70;;;30.50;59.70;;;;;;5011822;28;20038;-71
2022/06/20 13:56:51;;;;;;;12.60;6.35;;;30.50;59.00;;;;;;5063799;28;20036;-70